Time;durP1;ratioP1;P1;durP2;ratioP2;P2;SDS_P1;SDS_P2;PMS_P1;PMS_P2;Temp;Humidity;BMP_temperature;BMP_pressure;BME280_temperature;BME280_humidity;BME280_pressure;Samples;Min_cycle;Max_cycle;Signal;HPM_P1;HPM_P2
2021/11/23 00:01:05;;;;;;;6.55;5.38;;;5.20;71.50;;;;;;5008436;28;20044;-88
2021/11/23 00:03:31;;;;;;;10.13;5.15;;;5.20;71.50;;;;;;5009226;28;20036;-77
2021/11/23 00:05:57;;;;;;;7.25;5.38;;;5.20;71.50;;;;;;5008991;28;20033;-79
2021/11/23 00:08:23;;;;;;;6.68;6.07;;;5.20;71.50;;;;;;5006394;28;20025;-80
2021/11/23 00:10:49;;;;;;;8.88;5.90;;;5.20;71.50;;;;;;5008726;28;20377;-80
2021/11/23 00:13:16;;;;;;;8.02;5.35;;;5.10;71.30;;;;;;5008464;28;20026;-76
2021/11/23 00:15:42;;;;;;;6.95;5.55;;;5.10;71.30;;;;;;5026046;28;20100;-78
2021/11/23 00:18:11;;;;;;;8.55;5.75;;;5.10;71.30;;;;;;5028293;28;20037;-77
2021/11/23 00:20:40;;;;;;;7.43;4.70;;;5.10;71.30;;;;;;5019641;28;20037;-78
2021/11/23 00:23:06;;;;;;;8.45;5.63;;;5.00;71.20;;;;;;5028261;28;20088;-78
2021/11/23 00:25:33;;;;;;;5.68;5.15;;;5.00;71.20;;;;;;5026552;28;20033;-76
2021/11/23 00:27:59;;;;;;;8.57;5.85;;;5.10;71.40;;;;;;5026335;28;20117;-77
2021/11/23 00:30:25;;;;;;;7.45;5.57;;;5.00;71.20;;;;;;5026580;28;20045;-75
2021/11/23 00:32:54;;;;;;;9.40;4.97;;;5.00;71.20;;;;;;5027750;28;20029;-76
2021/11/23 00:35:20;;;;;;;8.30;5.57;;;5.00;71.20;;;;;;5027258;28;20030;-77
2021/11/23 00:37:48;;;;;;;9.32;5.72;;;5.00;71.20;;;;;;5027875;28;20021;-76
2021/11/23 00:40:15;;;;;;;7.53;5.35;;;5.00;71.20;;;;;;5026351;28;20052;-75
2021/11/23 00:42:41;;;;;;;9.55;5.68;;;4.90;71.00;;;;;;5027070;28;20030;-79
2021/11/23 00:45:08;;;;;;;8.43;5.60;;;4.90;71.00;;;;;;5027434;28;20039;-81
2021/11/23 00:47:34;;;;;;;7.65;5.30;;;4.90;71.00;;;;;;5027147;28;20049;-82
2021/11/23 00:50:00;;;;;;;7.35;5.47;;;4.90;71.00;;;;;;5017646;28;20275;-75
2021/11/23 00:52:26;;;;;;;7.80;5.40;;;4.80;70.80;;;;;;5027133;28;20461;-74
2021/11/23 00:54:52;;;;;;;6.97;5.50;;;4.80;70.80;;;;;;5025983;28;20261;-75
2021/11/23 00:57:18;;;;;;;6.85;5.75;;;4.80;70.80;;;;;;5027658;28;20030;-74
2021/11/23 00:59:44;;;;;;;7.20;5.50;;;4.80;70.80;;;;;;5026764;28;20064;-75
2021/11/23 01:02:11;;;;;;;7.97;5.65;;;4.80;70.80;;;;;;5026426;28;20025;-74
2021/11/23 01:04:38;;;;;;;7.63;5.55;;;4.80;70.80;;;;;;5027014;28;20095;-77
2021/11/23 01:07:04;;;;;;;7.47;5.32;;;4.70;70.70;;;;;;5027256;28;20033;-74
2021/11/23 01:09:30;;;;;;;8.50;5.78;;;4.70;70.70;;;;;;5026990;28;20037;-75
2021/11/23 01:11:57;;;;;;;10.88;6.75;;;4.70;70.70;;;;;;5027388;28;20107;-78
2021/11/23 01:14:23;;;;;;;7.80;6.32;;;4.70;70.70;;;;;;5027984;28;20030;-83
2021/11/23 01:16:49;;;;;;;10.60;6.15;;;4.70;70.70;;;;;;5026090;28;20029;-78
2021/11/23 01:19:17;;;;;;;8.43;6.00;;;4.70;70.70;;;;;;5027875;28;20107;-79
2021/11/23 01:21:44;;;;;;;11.77;7.88;;;4.70;70.70;;;;;;5026224;28;20032;-74
2021/11/23 01:24:11;;;;;;;8.15;6.40;;;4.60;70.50;;;;;;5017613;28;20033;-75
2021/11/23 01:26:37;;;;;;;8.43;6.60;;;4.60;70.50;;;;;;5026367;28;20386;-75
2021/11/23 01:29:04;;;;;;;9.80;5.95;;;4.60;70.50;;;;;;5026219;28;20068;-74
2021/11/23 01:31:30;;;;;;;10.05;6.50;;;4.60;70.50;;;;;;5025636;28;20033;-74
2021/11/23 01:33:56;;;;;;;10.02;6.30;;;4.60;70.50;;;;;;5026763;28;20036;-76
2021/11/23 01:36:23;;;;;;;10.40;6.43;;;4.60;70.50;;;;;;5026795;28;20037;-74
2021/11/23 01:38:50;;;;;;;9.18;6.63;;;4.50;70.40;;;;;;5025281;28;20389;-74
2021/11/23 01:41:17;;;;;;;10.65;7.35;;;4.50;70.40;;;;;;5027054;28;20053;-74
2021/11/23 01:43:43;;;;;;;9.48;7.10;;;4.50;70.40;;;;;;5026973;28;20026;-74
2021/11/23 01:46:09;;;;;;;9.82;7.25;;;4.50;70.40;;;;;;5025121;28;20112;-75
2021/11/23 01:48:35;;;;;;;8.98;7.30;;;4.50;70.40;;;;;;5026660;28;20069;-75
2021/11/23 01:51:03;;;;;;;8.73;6.65;;;4.50;70.40;;;;;;5025546;28;20044;-73
2021/11/23 01:53:30;;;;;;;10.57;7.60;;;4.50;70.40;;;;;;5026867;28;20082;-75
2021/11/23 01:55:56;;;;;;;10.95;7.75;;;4.50;70.40;;;;;;5021137;28;20040;-76
2021/11/23 01:58:22;;;;;;;9.27;7.90;;;4.50;70.40;;;;;;5023037;28;20038;-75
2021/11/23 02:00:49;;;;;;;9.23;7.18;;;4.50;70.40;;;;;;5006434;28;20034;-77
2021/11/23 02:03:15;;;;;;;9.02;7.57;;;4.40;70.20;;;;;;5006331;28;20366;-75
2021/11/23 02:05:41;;;;;;;8.05;7.07;;;4.40;70.20;;;;;;5007520;28;20034;-79
2021/11/23 02:08:10;;;;;;;9.15;6.88;;;4.40;70.20;;;;;;5026825;28;20116;-87
2021/11/23 02:10:36;;;;;;;8.95;7.28;;;4.40;70.20;;;;;;5009874;28;20533;-75
2021/11/23 02:13:02;;;;;;;8.13;7.18;;;4.40;70.20;;;;;;5025816;28;20061;-79
2021/11/23 02:15:28;;;;;;;12.35;8.15;;;4.30;70.10;;;;;;5026907;28;20076;-75
2021/11/23 02:17:55;;;;;;;9.27;7.07;;;4.40;70.20;;;;;;5026591;28;20143;-75
2021/11/23 02:20:24;;;;;;;9.07;7.07;;;4.40;70.20;;;;;;5026249;28;20087;-75
2021/11/23 02:22:51;;;;;;;11.70;8.07;;;4.30;70.10;;;;;;5026615;28;20319;-73
2021/11/23 02:25:18;;;;;;;12.43;8.18;;;4.40;70.20;;;;;;5008453;28;20547;-77
2021/11/23 02:27:47;;;;;;;10.93;8.38;;;4.30;70.10;;;;;;5025137;28;20041;-80
2021/11/23 02:30:14;;;;;;;11.95;8.43;;;4.30;70.10;;;;;;5016104;28;20042;-76
2021/11/23 02:32:51;;;;;;;10.40;8.13;;;4.30;70.10;;;;;;5006375;28;20116;-75
2021/11/23 02:35:18;;;;;;;9.88;7.97;;;4.30;70.10;;;;;;5009796;28;20512;-75
2021/11/23 02:37:48;;;;;;;10.55;7.63;;;4.30;70.10;;;;;;5017243;28;20564;-75
2021/11/23 02:40:15;;;;;;;10.05;7.95;;;4.20;69.90;;;;;;5018021;28;20112;-78
2021/11/23 02:42:41;;;;;;;10.57;7.47;;;4.20;69.90;;;;;;5007133;28;20042;-75
2021/11/23 02:45:07;;;;;;;10.02;8.30;;;4.20;69.90;;;;;;5017408;28;20416;-74
2021/11/23 02:47:38;;;;;;;10.45;9.00;;;4.20;69.90;;;;;;5031626;28;20049;-76
2021/11/23 02:50:06;;;;;;;10.32;7.78;;;4.10;69.70;;;;;;5031851;28;20037;-75
2021/11/23 02:52:33;;;;;;;10.60;7.70;;;4.20;69.90;;;;;;5030440;28;20033;-82
2021/11/23 02:55:01;;;;;;;9.43;8.43;;;4.10;69.70;;;;;;5026271;28;20405;-76
2021/11/23 02:57:29;;;;;;;10.55;8.45;;;4.10;69.70;;;;;;5026627;28;20030;-79
2021/11/23 02:59:55;;;;;;;9.10;8.13;;;4.10;69.70;;;;;;5001614;28;20030;-77
2021/11/23 03:02:21;;;;;;;10.90;7.65;;;4.10;69.70;;;;;;5011562;28;20251;-87
2021/11/23 03:04:56;;;;;;;10.23;8.68;;;4.10;69.70;;;;;;5011387;28;20026;-80
2021/11/23 03:07:23;;;;;;;9.95;8.68;;;4.00;69.60;;;;;;5010895;28;20037;-76
2021/11/23 03:09:49;;;;;;;12.50;8.73;;;4.00;69.50;;;;;;5010711;28;20132;-76
2021/11/23 03:12:19;;;;;;;11.82;8.82;;;4.00;69.50;;;;;;5010851;28;20037;-74
2021/11/23 03:14:45;;;;;;;13.27;8.90;;;4.00;69.60;;;;;;5012432;28;20112;-82
2021/11/23 03:17:13;;;;;;;12.70;9.25;;;4.00;69.60;;;;;;5014643;28;20029;-73
2021/11/23 03:19:40;;;;;;;10.32;8.38;;;4.00;69.60;;;;;;5014090;28;20026;-74
2021/11/23 03:22:08;;;;;;;8.93;8.02;;;4.00;69.60;;;;;;5015726;28;20021;-75
2021/11/23 03:24:34;;;;;;;11.18;8.73;;;4.00;69.60;;;;;;5014601;28;20115;-82
2021/11/23 03:27:00;;;;;;;10.43;8.52;;;4.00;69.70;;;;;;5014470;28;20486;-75
2021/11/23 03:29:28;;;;;;;9.55;8.05;;;4.00;69.70;;;;;;5004790;28;20133;-81
2021/11/23 03:31:54;;;;;;;10.25;8.60;;;4.00;69.70;;;;;;5013277;28;20030;-81
2021/11/23 03:34:21;;;;;;;11.65;8.52;;;4.00;69.70;;;;;;5014605;28;20053;-79
2021/11/23 03:36:47;;;;;;;10.75;8.27;;;4.00;69.70;;;;;;5014753;28;20354;-77
2021/11/23 03:39:13;;;;;;;14.27;8.80;;;4.00;69.70;;;;;;5016140;28;20104;-82
2021/11/23 03:41:39;;;;;;;10.25;8.43;;;3.90;69.50;;;;;;5013918;28;20040;-81
2021/11/23 03:44:06;;;;;;;11.30;8.20;;;4.00;69.70;;;;;;5014263;28;20022;-76
2021/11/23 03:46:32;;;;;;;11.20;8.57;;;3.90;69.50;;;;;;5013965;28;20049;-80
2021/11/23 03:48:59;;;;;;;9.38;8.25;;;3.90;69.50;;;;;;4996310;28;20597;-76
2021/11/23 03:51:25;;;;;;;10.00;8.80;;;3.90;69.50;;;;;;5014257;28;20480;-79
2021/11/23 03:53:51;;;;;;;10.05;8.65;;;3.90;69.50;;;;;;5019786;28;20394;-76
2021/11/23 03:56:17;;;;;;;10.70;8.02;;;3.90;69.50;;;;;;5018549;28;20032;-91
2021/11/23 03:58:43;;;;;;;10.98;8.32;;;3.90;69.40;;;;;;5023755;28;20380;-76
2021/11/23 04:01:09;;;;;;;10.70;8.43;;;3.80;69.30;;;;;;5015006;28;20121;-79
2021/11/23 04:03:37;;;;;;;13.68;9.30;;;3.80;69.30;;;;;;5015066;28;20026;-76
2021/11/23 04:06:04;;;;;;;9.70;7.97;;;3.80;69.30;;;;;;5006395;28;20725;-76
2021/11/23 04:08:31;;;;;;;11.57;8.00;;;3.80;69.30;;;;;;5014069;28;20548;-79
2021/11/23 04:10:57;;;;;;;10.75;8.43;;;3.80;69.30;;;;;;5013789;28;20128;-77
2021/11/23 04:13:24;;;;;;;11.48;7.93;;;3.80;69.30;;;;;;5013491;28;20033;-80
2021/11/23 04:15:52;;;;;;;10.65;8.02;;;3.80;69.30;;;;;;5014957;28;20185;-81
2021/11/23 04:18:18;;;;;;;10.50;8.45;;;3.80;69.30;;;;;;5014930;28;20069;-81
2021/11/23 04:20:44;;;;;;;11.27;8.18;;;3.70;69.10;;;;;;5013895;28;20535;-74
2021/11/23 04:23:10;;;;;;;10.50;8.93;;;3.70;69.10;;;;;;5012507;28;20397;-74
2021/11/23 04:25:37;;;;;;;12.23;8.20;;;3.70;69.10;;;;;;5012433;28;20030;-73
2021/11/23 04:28:03;;;;;;;10.70;8.43;;;3.70;69.10;;;;;;5012861;28;20033;-75
2021/11/23 04:30:29;;;;;;;10.70;8.07;;;3.70;69.10;;;;;;5012562;28;20041;-76
2021/11/23 04:32:55;;;;;;;10.82;8.13;;;3.70;69.10;;;;;;5012866;28;20493;-77
2021/11/23 04:35:21;;;;;;;10.93;7.93;;;3.70;69.10;;;;;;5028446;28;20033;-75
2021/11/23 04:37:47;;;;;;;10.95;7.43;;;3.60;68.90;;;;;;5012876;28;20504;-74
2021/11/23 04:40:15;;;;;;;10.43;8.57;;;3.70;69.10;;;;;;5002885;28;20436;-74
2021/11/23 04:42:42;;;;;;;9.18;7.72;;;3.60;68.90;;;;;;5012732;28;20036;-84
2021/11/23 04:45:10;;;;;;;9.82;7.93;;;3.60;68.90;;;;;;5011523;28;20049;-77
2021/11/23 04:47:37;;;;;;;13.55;8.88;;;3.60;68.90;;;;;;5014249;28;20449;-91
2021/11/23 04:50:07;;;;;;;10.10;8.05;;;3.60;68.90;;;;;;5032398;28;20096;-89
2021/11/23 04:52:33;;;;;;;11.73;8.20;;;3.60;68.90;;;;;;5032928;28;20061;-75
2021/11/23 04:54:59;;;;;;;13.60;9.63;;;3.60;68.90;;;;;;5032881;28;20039;-74
2021/11/23 04:57:25;;;;;;;11.85;8.15;;;3.60;68.90;;;;;;5031844;28;20451;-75
2021/11/23 04:59:51;;;;;;;13.88;9.25;;;3.60;68.90;;;;;;5032333;28;20037;-75
2021/11/23 05:02:19;;;;;;;10.38;8.23;;;3.50;68.80;;;;;;5032383;28;20434;-78
2021/11/23 05:04:46;;;;;;;10.43;8.60;;;3.50;68.80;;;;;;5034620;28;20113;-84
2021/11/23 05:07:12;;;;;;;11.38;8.18;;;3.50;68.80;;;;;;5032354;28;20524;-76
2021/11/23 05:09:38;;;;;;;10.80;9.00;;;3.50;68.80;;;;;;5023357;28;20504;-75
2021/11/23 05:12:05;;;;;;;8.55;7.35;;;3.50;68.80;;;;;;5015125;28;20029;-80
2021/11/23 05:14:31;;;;;;;9.65;7.75;;;3.50;68.80;;;;;;5032465;28;20450;-76
2021/11/23 05:16:57;;;;;;;10.88;8.13;;;3.50;68.80;;;;;;5033420;28;20033;-77
2021/11/23 05:19:23;;;;;;;10.45;8.15;;;3.50;68.80;;;;;;5031388;28;20115;-76
2021/11/23 05:21:49;;;;;;;10.63;8.48;;;3.50;68.80;;;;;;5028060;28;20100;-75
2021/11/23 05:24:15;;;;;;;12.50;8.75;;;3.50;68.80;;;;;;5028469;28;20030;-76
2021/11/23 05:26:41;;;;;;;9.35;8.38;;;3.40;68.60;;;;;;5014066;28;20021;-78
2021/11/23 05:29:08;;;;;;;11.27;8.52;;;3.50;68.80;;;;;;5031466;28;20037;-80
2021/11/23 05:31:35;;;;;;;10.32;8.38;;;3.50;68.80;;;;;;5031804;28;20362;-74
2021/11/23 05:34:01;;;;;;;10.32;9.02;;;3.40;68.60;;;;;;5030265;28;20103;-73
2021/11/23 05:36:27;;;;;;;9.68;8.55;;;3.40;68.60;;;;;;5032088;28;20491;-74
2021/11/23 05:38:53;;;;;;;12.13;9.15;;;3.40;68.60;;;;;;5031765;28;20171;-76
2021/11/23 05:41:19;;;;;;;10.45;9.25;;;3.40;68.60;;;;;;5022049;28;20116;-76
2021/11/23 05:43:45;;;;;;;10.32;8.40;;;3.40;68.60;;;;;;5030831;28;20124;-77
2021/11/23 05:46:11;;;;;;;11.05;7.85;;;3.40;68.60;;;;;;5031188;28;20610;-78
2021/11/23 05:48:37;;;;;;;10.60;8.10;;;3.40;68.60;;;;;;5014989;28;20044;-74
2021/11/23 05:51:03;;;;;;;10.52;8.60;;;3.40;68.60;;;;;;5008668;28;20057;-78
2021/11/23 05:53:41;;;;;;;10.70;8.25;;;3.30;68.50;;;;;;5008466;28;20029;-74
2021/11/23 05:56:08;;;;;;;10.43;8.32;;;3.30;68.40;;;;;;5008130;28;20033;-74
2021/11/23 05:58:34;;;;;;;13.57;9.75;;;3.30;68.50;;;;;;5009059;28;20038;-74
2021/11/23 06:01:00;;;;;;;10.95;8.73;;;3.30;68.50;;;;;;5008128;28;20037;-75
2021/11/23 06:03:28;;;;;;;12.55;8.35;;;3.30;68.50;;;;;;5006255;28;20034;-76
2021/11/23 06:05:54;;;;;;;10.88;8.90;;;3.20;68.30;;;;;;5006473;28;20118;-77
2021/11/23 06:08:20;;;;;;;10.63;9.15;;;3.30;68.50;;;;;;5011329;28;20128;-73
2021/11/23 06:10:45;;;;;;;9.95;8.45;;;3.30;68.50;;;;;;5011958;28;20041;-74
2021/11/23 06:13:12;;;;;;;11.02;8.30;;;3.30;68.50;;;;;;5009352;28;20037;-74
2021/11/23 06:15:43;;;;;;;11.50;8.23;;;3.30;68.50;;;;;;5006986;28;20563;-74
2021/11/23 06:18:11;;;;;;;9.98;8.13;;;3.20;68.30;;;;;;5006405;28;20454;-74
2021/11/23 06:20:37;;;;;;;12.07;8.82;;;3.20;68.30;;;;;;5004985;28;20026;-73
2021/11/23 06:23:03;;;;;;;11.65;8.23;;;3.30;68.50;;;;;;5006155;28;20083;-73
2021/11/23 06:25:30;;;;;;;11.52;8.63;;;3.20;68.30;;;;;;5005841;28;20553;-75
2021/11/23 06:27:56;;;;;;;10.32;8.80;;;3.20;68.30;;;;;;5010127;28;20116;-73
2021/11/23 06:30:23;;;;;;;9.80;8.00;;;3.20;68.30;;;;;;5025790;28;20045;-73
2021/11/23 06:32:49;;;;;;;9.50;7.57;;;3.20;68.20;;;;;;5025434;28;20037;-74
2021/11/23 06:35:16;;;;;;;12.18;8.70;;;3.20;68.20;;;;;;5023010;28;20551;-77
2021/11/23 06:37:42;;;;;;;9.10;8.02;;;3.20;68.20;;;;;;5012712;28;20389;-75
2021/11/23 06:40:09;;;;;;;16.10;8.82;;;3.20;68.30;;;;;;5023070;28;20388;-76
2021/11/23 06:42:36;;;;;;;10.18;8.35;;;3.20;68.30;;;;;;5005954;28;20387;-78
2021/11/23 06:45:03;;;;;;;11.27;8.30;;;3.20;68.50;;;;;;5015474;28;20021;-75
2021/11/23 06:47:30;;;;;;;9.65;8.63;;;3.20;68.60;;;;;;5006382;28;20121;-73
2021/11/23 06:49:55;;;;;;;9.07;8.13;;;3.20;68.70;;;;;;4990543;28;20034;-81
2021/11/23 06:52:23;;;;;;;12.20;8.65;;;3.30;69.00;;;;;;5013231;28;20033;-75
2021/11/23 06:54:49;;;;;;;10.43;8.15;;;3.30;69.10;;;;;;5009122;28;20113;-77
2021/11/23 06:57:15;;;;;;;11.38;9.80;;;3.30;69.10;;;;;;5010034;28;20053;-81
2021/11/23 06:59:44;;;;;;;10.30;8.98;;;3.30;69.10;;;;;;5008703;28;20030;-75
2021/11/23 07:02:10;;;;;;;12.80;9.00;;;3.30;69.10;;;;;;5009631;28;20161;-73
2021/11/23 07:04:36;;;;;;;10.68;8.77;;;3.30;69.10;;;;;;5010559;28;20029;-79
2021/11/23 07:07:03;;;;;;;12.23;9.50;;;3.30;69.10;;;;;;5011244;28;20064;-77
2021/11/23 07:09:29;;;;;;;10.73;8.55;;;3.30;69.20;;;;;;5010275;28;20065;-79
2021/11/23 07:11:55;;;;;;;10.68;9.25;;;3.30;69.20;;;;;;5010099;28;20072;-81
2021/11/23 07:14:21;;;;;;;10.52;8.77;;;3.30;69.20;;;;;;5024001;28;20477;-77
2021/11/23 07:16:47;;;;;;;9.82;8.65;;;3.30;69.20;;;;;;5030091;28;20034;-74
2021/11/23 07:19:14;;;;;;;11.00;8.70;;;3.30;69.20;;;;;;5029431;28;20034;-75
2021/11/23 07:21:40;;;;;;;9.70;8.48;;;3.30;69.20;;;;;;5029652;28;20132;-75
2021/11/23 07:24:07;;;;;;;9.38;8.20;;;3.30;69.20;;;;;;5012988;28;20038;-74
2021/11/23 07:26:34;;;;;;;11.13;8.20;;;3.30;69.20;;;;;;5015469;28;20092;-73
2021/11/23 07:29:01;;;;;;;10.30;8.60;;;3.30;69.20;;;;;;5011133;28;20441;-74
2021/11/23 07:31:28;;;;;;;10.75;8.70;;;3.30;69.20;;;;;;5022720;28;20628;-73
2021/11/23 07:33:54;;;;;;;10.13;8.48;;;3.30;69.20;;;;;;5019332;28;20028;-79
2021/11/23 07:36:24;;;;;;;11.05;9.25;;;3.30;69.30;;;;;;5028094;28;20033;-74
2021/11/23 07:38:52;;;;;;;10.35;8.68;;;3.30;69.30;;;;;;5015196;28;20026;-74
2021/11/23 07:41:18;;;;;;;10.93;8.60;;;3.30;69.40;;;;;;5007560;28;20080;-76
2021/11/23 07:43:44;;;;;;;11.65;9.35;;;3.30;69.40;;;;;;5009749;28;20057;-75
2021/11/23 07:46:10;;;;;;;10.75;9.38;;;3.30;69.50;;;;;;5008407;28;20588;-74
2021/11/23 07:48:37;;;;;;;10.30;8.88;;;3.30;69.50;;;;;;5007616;28;20473;-74
2021/11/23 07:51:03;;;;;;;11.23;8.80;;;3.40;69.70;;;;;;5007592;28;20044;-78
2021/11/23 07:53:30;;;;;;;12.95;8.85;;;3.40;69.70;;;;;;5007118;28;20057;-73
2021/11/23 07:55:56;;;;;;;11.35;9.40;;;3.40;70.20;;;;;;5005603;28;20123;-73
2021/11/23 07:58:22;;;;;;;12.23;9.80;;;3.40;69.70;;;;;;5006349;28;20486;-80
2021/11/23 08:00:48;;;;;;;10.68;9.57;;;3.50;69.90;;;;;;5006107;28;20029;-82
2021/11/23 08:03:14;;;;;;;12.27;10.02;;;3.50;69.90;;;;;;5005496;28;20381;-82
2021/11/23 08:05:41;;;;;;;12.00;9.18;;;3.50;69.90;;;;;;5006099;28;20397;-77
2021/11/23 08:08:09;;;;;;;12.13;9.75;;;3.50;69.90;;;;;;5008766;28;20025;-74
2021/11/23 08:10:35;;;;;;;10.63;9.52;;;3.60;70.10;;;;;;5008288;28;20120;-73
2021/11/23 08:13:02;;;;;;;10.88;9.32;;;3.60;70.10;;;;;;5008415;28;20033;-76
2021/11/23 08:15:28;;;;;;;11.70;9.48;;;3.60;70.10;;;;;;5007819;28;20026;-73
2021/11/23 08:17:54;;;;;;;10.95;9.48;;;3.60;70.10;;;;;;4991909;28;20560;-76
2021/11/23 08:20:20;;;;;;;12.70;8.95;;;3.70;70.30;;;;;;5009135;28;20072;-73
2021/11/23 08:22:48;;;;;;;11.70;9.88;;;3.70;70.30;;;;;;5008936;28;20053;-77
2021/11/23 08:25:16;;;;;;;11.65;9.88;;;3.70;70.20;;;;;;5007410;28;20037;-76
2021/11/23 08:27:42;;;;;;;12.32;9.48;;;3.80;70.40;;;;;;5008324;28;20401;-76
2021/11/23 08:30:09;;;;;;;12.95;10.45;;;3.80;70.40;;;;;;5008285;28;20351;-73
2021/11/23 08:32:36;;;;;;;13.32;10.52;;;3.90;70.60;;;;;;5007387;28;20109;-76
2021/11/23 08:35:03;;;;;;;13.52;9.93;;;3.90;70.60;;;;;;5006856;28;20033;-73
2021/11/23 08:37:31;;;;;;;11.70;9.68;;;4.00;70.70;;;;;;4990739;28;20087;-73
2021/11/23 08:39:58;;;;;;;12.88;10.32;;;4.00;70.70;;;;;;5007170;28;20068;-73
2021/11/23 08:42:25;;;;;;;11.68;10.15;;;4.10;70.80;;;;;;4991016;28;20033;-75
2021/11/23 08:44:53;;;;;;;11.35;10.15;;;4.10;70.80;;;;;;5006360;28;20030;-72
2021/11/23 08:47:21;;;;;;;11.93;9.70;;;4.20;70.90;;;;;;5008128;28;20113;-73
2021/11/23 08:49:48;;;;;;;14.30;10.80;;;4.20;70.90;;;;;;5007669;28;20045;-74
2021/11/23 08:52:15;;;;;;;13.25;11.30;;;4.30;71.00;;;;;;5008453;28;20489;-79
2021/11/23 08:54:42;;;;;;;11.43;9.38;;;4.30;71.00;;;;;;5020065;28;20437;-74
2021/11/23 08:57:11;;;;;;;12.38;10.43;;;4.40;71.20;;;;;;5038664;28;20151;-75
2021/11/23 08:59:41;;;;;;;10.60;9.38;;;4.40;71.20;;;;;;5011516;28;20046;-73
2021/11/23 09:02:09;;;;;;;17.23;10.48;;;4.50;71.30;;;;;;5006200;28;20030;-75
2021/11/23 09:04:35;;;;;;;16.90;12.85;;;4.50;71.60;;;;;;5008029;28;20117;-75
2021/11/23 09:07:07;;;;;;;16.45;12.55;;;4.80;72.80;;;;;;5007383;28;20381;-75
2021/11/23 09:09:34;;;;;;;19.85;14.48;;;5.10;73.30;;;;;;5007059;28;20105;-80
2021/11/23 09:12:03;;;;;;;19.27;13.73;;;5.30;73.50;;;;;;5005196;28;20490;-75
2021/11/23 09:14:32;;;;;;;19.45;12.40;;;5.40;73.70;;;;;;5007843;28;20423;-76
2021/11/23 09:16:58;;;;;;;16.98;13.13;;;5.50;73.80;;;;;;5008101;28;20417;-76
2021/11/23 09:19:26;;;;;;;15.15;12.18;;;5.60;74.10;;;;;;5006747;28;20445;-75
2021/11/23 09:21:52;;;;;;;15.90;12.05;;;5.70;74.30;;;;;;5008040;28;20676;-75
2021/11/23 09:24:18;;;;;;;16.95;11.85;;;5.70;74.40;;;;;;5005818;28;20079;-79
2021/11/23 09:26:45;;;;;;;13.35;10.30;;;5.80;74.70;;;;;;5007915;28;20021;-76
2021/11/23 09:29:13;;;;;;;15.18;11.23;;;5.90;74.90;;;;;;5007073;28;20056;-75
2021/11/23 09:31:39;;;;;;;12.88;9.95;;;5.90;74.90;;;;;;5008787;28;20507;-75
2021/11/23 09:34:05;;;;;;;11.90;10.20;;;5.90;74.90;;;;;;5009001;28;20038;-74
2021/11/23 09:36:31;;;;;;;12.07;9.45;;;6.00;75.10;;;;;;5012239;28;20030;-74
2021/11/23 09:38:57;;;;;;;12.00;9.50;;;6.00;75.10;;;;;;5025748;28;20172;-80
2021/11/23 09:41:23;;;;;;;11.23;8.68;;;6.10;75.30;;;;;;5033597;28;20041;-77
2021/11/23 09:43:49;;;;;;;12.88;9.68;;;6.10;75.20;;;;;;5031155;28;20393;-74
2021/11/23 09:46:15;;;;;;;10.57;9.48;;;6.20;75.30;;;;;;5029863;28;20080;-77
2021/11/23 09:48:45;;;;;;;11.52;8.93;;;6.30;75.40;;;;;;5027098;28;20034;-76
2021/11/23 09:51:24;;;;;;;10.23;9.13;;;6.30;75.30;;;;;;5026373;28;20367;-77
2021/11/23 09:53:52;;;;;;;13.32;8.75;;;6.40;75.40;;;;;;5016481;28;20062;-80
2021/11/23 09:56:19;;;;;;;10.80;8.85;;;6.50;75.40;;;;;;5009154;28;20026;-79
2021/11/23 09:58:45;;;;;;;9.98;8.98;;;6.50;75.30;;;;;;5011683;28;20444;-75
2021/11/23 10:01:12;;;;;;;11.02;8.30;;;6.60;75.40;;;;;;5006350;28;20551;-84
2021/11/23 10:03:39;;;;;;;11.27;8.45;;;6.60;75.30;;;;;;5026758;28;20417;-78
2021/11/23 10:06:08;;;;;;;10.02;8.63;;;6.70;75.40;;;;;;4989566;28;20068;-77
2021/11/23 10:08:36;;;;;;;9.73;8.48;;;6.70;75.20;;;;;;5002814;28;20035;-78
2021/11/23 10:11:02;;;;;;;10.20;8.65;;;6.80;75.30;;;;;;5028483;28;20045;-83
2021/11/23 10:13:46;;;;;;;11.88;8.77;;;6.90;75.30;;;;;;5028717;28;20033;-75
2021/11/23 10:16:13;;;;;;;10.50;8.65;;;7.00;75.40;;;;;;5031280;28;20041;-76
2021/11/23 10:18:40;;;;;;;9.88;8.88;;;7.00;75.30;;;;;;5028009;28;20914;-76
2021/11/23 10:21:11;;;;;;;11.32;8.73;;;7.10;75.30;;;;;;5026974;28;20473;-75
2021/11/23 10:23:42;;;;;;;11.48;8.38;;;7.10;75.20;;;;;;5027482;28;20022;-75
2021/11/23 10:26:13;;;;;;;11.45;8.55;;;7.20;75.30;;;;;;5027482;28;20284;-88
2021/11/23 10:28:44;;;;;;;12.07;9.18;;;7.20;75.10;;;;;;5025012;28;20048;-75
2021/11/23 10:31:12;;;;;;;9.52;8.48;;;7.30;75.20;;;;;;5026615;28;20594;-77
2021/11/23 10:33:39;;;;;;;8.95;7.97;;;7.40;75.30;;;;;;5024836;28;20068;-77
2021/11/23 10:36:09;;;;;;;10.20;8.45;;;7.40;75.20;;;;;;5026110;28;20037;-85
2021/11/23 10:38:37;;;;;;;13.25;8.98;;;7.50;75.20;;;;;;5026104;28;20029;-76
2021/11/23 10:41:10;;;;;;;10.65;7.78;;;7.60;75.30;;;;;;5025969;28;20234;-79
2021/11/23 10:43:39;;;;;;;9.15;8.07;;;7.60;75.20;;;;;;5026485;28;20032;-76
2021/11/23 10:46:16;;;;;;;11.15;8.75;;;7.70;75.30;;;;;;5025820;28;20230;-75
2021/11/23 10:48:55;;;;;;;9.35;8.35;;;7.80;75.30;;;;;;5025878;28;20412;-77
2021/11/23 10:51:22;;;;;;;10.48;8.85;;;7.80;75.70;;;;;;5026736;28;20045;-77
2021/11/23 10:53:49;;;;;;;11.18;8.88;;;7.90;75.30;;;;;;5026187;28;20033;-81
2021/11/23 10:56:18;;;;;;;12.13;8.90;;;7.90;75.10;;;;;;5026269;28;20036;-81
2021/11/23 10:58:47;;;;;;;9.68;8.63;;;8.00;75.20;;;;;;5027889;28;20069;-87
2021/11/23 11:01:15;;;;;;;10.23;8.23;;;8.10;75.30;;;;;;5026637;28;20048;-85
2021/11/23 11:03:42;;;;;;;11.48;10.05;;;8.10;75.20;;;;;;5019934;28;20121;-76
2021/11/23 11:06:09;;;;;;;9.35;8.45;;;8.20;75.30;;;;;;5007102;28;20037;-78
2021/11/23 11:08:41;;;;;;;12.05;9.07;;;8.30;75.30;;;;;;5006086;28;20040;-75
2021/11/23 11:11:16;;;;;;;11.52;8.18;;;8.30;75.20;;;;;;5004557;28;20047;-78
2021/11/23 11:13:48;;;;;;;9.25;8.43;;;8.50;75.50;;;;;;5006185;28;20106;-76
2021/11/23 11:16:16;;;;;;;10.57;8.75;;;8.50;75.30;;;;;;5010371;28;20397;-76
2021/11/23 11:19:11;;;;;;;8.50;7.65;;;8.60;75.30;;;;;;5006411;28;20121;-81
2021/11/23 11:21:47;;;;;;;11.95;9.02;;;8.80;75.40;;;;;;5005249;28;20026;-75
2021/11/23 11:24:27;;;;;;;10.52;7.90;;;8.80;75.30;;;;;;5005482;28;20409;-80
2021/11/23 11:27:10;;;;;;;8.48;7.57;;;8.90;75.20;;;;;;5004461;28;20072;-76
2021/11/23 11:29:37;;;;;;;8.43;7.47;;;9.00;75.30;;;;;;5005042;28;20033;-79
2021/11/23 11:32:03;;;;;;;10.43;8.02;;;9.00;75.20;;;;;;5005760;28;20132;-85
2021/11/23 11:34:39;;;;;;;8.75;7.75;;;9.10;75.40;;;;;;5007464;28;20030;-86
2021/11/23 11:37:16;;;;;;;8.68;7.88;;;9.10;75.30;;;;;;5008477;28;20497;-75
2021/11/23 11:39:53;;;;;;;9.05;7.40;;;9.20;75.30;;;;;;5009354;28;20042;-79
2021/11/23 11:42:19;;;;;;;8.23;7.13;;;9.30;75.40;;;;;;5008174;28;20069;-74
2021/11/23 11:44:51;;;;;;;8.05;7.10;;;9.40;75.40;;;;;;5009585;28;20037;-80
2021/11/23 11:47:28;;;;;;;7.38;6.60;;;9.50;75.50;;;;;;5009800;28;20074;-75
2021/11/23 11:49:58;;;;;;;7.28;6.13;;;9.60;75.50;;;;;;5008429;28;20065;-81
2021/11/23 11:52:27;;;;;;;7.82;5.95;;;9.70;75.50;;;;;;5009326;28;20414;-73
2021/11/23 11:55:11;;;;;;;9.18;6.55;;;9.70;75.40;;;;;;5009005;28;20474;-74
2021/11/23 11:57:42;;;;;;;8.48;6.82;;;9.80;75.40;;;;;;5010070;28;20292;-78
2021/11/23 12:00:23;;;;;;;7.40;6.25;;;9.90;75.50;;;;;;5009814;28;20032;-75
2021/11/23 12:02:51;;;;;;;6.45;5.85;;;10.00;75.50;;;;;;5008086;28;20053;-75
2021/11/23 12:05:18;;;;;;;6.07;4.90;;;10.10;75.50;;;;;;5007902;28;20060;-87
2021/11/23 12:07:45;;;;;;;5.80;4.97;;;10.10;75.50;;;;;;5008786;28;20030;-78
2021/11/23 12:10:32;;;;;;;5.90;5.30;;;10.20;75.70;;;;;;5007701;28;20048;-76
2021/11/23 12:13:25;;;;;;;5.75;5.10;;;10.30;75.90;;;;;;5008520;28;20120;-77
2021/11/23 12:16:06;;;;;;;5.85;4.78;;;10.40;75.90;;;;;;5008941;28;20440;-79
2021/11/23 12:18:50;;;;;;;5.90;4.20;;;10.50;75.90;;;;;;5006909;28;20034;-74
2021/11/23 12:21:18;;;;;;;;;;;10.60;75.90;;;;;;5009314;28;20114;-76
2021/11/23 12:23:50;;;;;;;6.00;4.20;;;10.70;76.00;;;;;;5007051;28;19909;-77
2021/11/23 12:26:18;;;;;;;9.90;6.82;;;10.70;75.80;;;;;;5009161;28;20331;-82
2021/11/23 12:29:16;;;;;;;5.40;4.90;;;10.80;75.80;;;;;;5008340;28;20552;-74
2021/11/23 12:31:51;;;;;;;5.85;4.25;;;10.80;75.70;;;;;;5000598;28;20067;-76
2021/11/23 12:34:17;;;;;;;10.10;5.40;;;10.80;75.50;;;;;;5006550;28;20393;-78
2021/11/23 12:36:56;;;;;;;5.43;3.78;;;10.90;75.70;;;;;;5008553;28;20069;-79
2021/11/23 12:39:26;;;;;;;4.88;3.90;;;10.90;75.50;;;;;;5008522;28;20637;-81
2021/11/23 12:42:01;;;;;;;4.25;3.50;;;10.90;75.40;;;;;;5008503;28;20033;-78
2021/11/23 12:44:33;;;;;;;4.97;4.10;;;11.00;75.50;;;;;;5007041;28;20477;-75
2021/11/23 12:47:07;;;;;;;6.53;3.92;;;11.00;75.40;;;;;;5008423;28;20053;-77
2021/11/23 12:49:35;;;;;;;5.10;3.63;;;11.00;75.30;;;;;;5008945;28;20034;-74
2021/11/23 12:52:03;;;;;;;4.35;3.35;;;11.10;75.40;;;;;;5009706;28;20030;-74
2021/11/23 12:54:32;;;;;;;4.38;3.90;;;11.10;75.20;;;;;;4996286;28;20045;-74